Time;durP1;ratioP1;P1;durP2;ratioP2;P2;SDS_P1;SDS_P2;PMS_P1;PMS_P2;Temp;Humidity;BMP_temperature;BMP_pressure;BME280_temperature;BME280_humidity;BME280_pressure;Samples;Min_cycle;Max_cycle;Signal;HPM_P1;HPM_P2
2022/01/05 00:01:36;;;;;;;2.20;1.63;;;8.00;99.90;;;;;;5082783;27;20575;-48
2022/01/05 00:04:03;;;;;;;2.13;1.70;;;8.00;99.90;;;;;;5094489;28;20871;-49
2022/01/05 00:06:29;;;;;;;2.23;1.40;;;8.00;99.90;;;;;;5077407;28;20489;-49
2022/01/05 00:08:56;;;;;;;1.93;1.10;;;8.00;99.90;;;;;;5062301;28;20480;-49
2022/01/05 00:11:23;;;;;;;1.83;1.27;;;7.90;99.90;;;;;;5079828;28;20508;-49
2022/01/05 00:13:51;;;;;;;3.60;1.63;;;8.00;99.90;;;;;;5083618;28;20483;-49
2022/01/05 00:16:18;;;;;;;3.00;1.60;;;8.00;99.90;;;;;;5077576;28;20583;-48
2022/01/05 00:18:45;;;;;;;4.60;1.80;;;8.00;99.90;;;;;;5075189;28;20794;-49
2022/01/05 00:21:12;;;;;;;2.67;1.50;;;8.10;99.90;;;;;;5080445;28;20547;-49
2022/01/05 00:23:38;;;;;;;1.70;1.47;;;8.00;99.90;;;;;;5063790;28;20669;-51
2022/01/05 00:26:05;;;;;;;4.97;2.10;;;8.00;99.90;;;;;;5078807;28;20499;-48
2022/01/05 00:28:32;;;;;;;4.80;2.20;;;8.00;99.90;;;;;;5091982;28;20524;-49
2022/01/05 00:31:00;;;;;;;3.97;2.57;;;8.00;99.90;;;;;;5070963;28;21007;-48
2022/01/05 00:33:28;;;;;;;3.30;1.80;;;8.00;99.90;;;;;;5087339;28;20478;-50
2022/01/05 00:35:55;;;;;;;3.90;2.80;;;8.00;99.90;;;;;;5074627;28;20837;-49
2022/01/05 00:38:22;;;;;;;2.90;2.60;;;8.00;99.90;;;;;;5066334;28;20538;-48
2022/01/05 00:40:48;;;;;;;4.57;3.07;;;8.00;99.90;;;;;;5083410;28;20483;-47
2022/01/05 00:43:15;;;;;;;8.63;4.20;;;7.90;99.90;;;;;;5070711;28;20493;-48
2022/01/05 00:45:42;;;;;;;3.37;3.07;;;7.80;99.90;;;;;;5076294;28;21038;-48
2022/01/05 00:48:10;;;;;;;4.30;2.80;;;7.90;99.90;;;;;;5073931;28;20492;-50
2022/01/05 00:50:36;;;;;;;4.60;2.57;;;7.90;99.90;;;;;;5082987;28;20510;-48
2022/01/05 00:53:03;;;;;;;4.40;2.30;;;8.00;99.90;;;;;;5074088;28;20579;-48
2022/01/05 00:55:30;;;;;;;4.00;2.20;;;8.00;99.90;;;;;;5080584;28;20548;-48
2022/01/05 00:57:57;;;;;;;3.60;1.80;;;8.00;99.90;;;;;;5074753;28;20479;-47
2022/01/05 01:00:24;;;;;;;7.80;2.07;;;8.00;99.90;;;;;;5076041;28;20539;-49
2022/01/05 01:02:50;;;;;;;1.87;1.47;;;8.10;99.90;;;;;;5076832;28;20875;-49
2022/01/05 01:05:19;;;;;;;2.40;1.50;;;8.00;99.90;;;;;;5078288;28;20563;-48
2022/01/05 01:07:46;;;;;;;2.30;1.47;;;8.00;99.90;;;;;;5079341;28;20970;-48
2022/01/05 01:10:13;;;;;;;3.10;1.43;;;8.00;99.90;;;;;;5068042;28;20617;-49
2022/01/05 01:12:40;;;;;;;1.63;1.37;;;8.00;99.90;;;;;;5088957;28;20480;-48
2022/01/05 01:15:11;;;;;;;2.90;1.63;;;8.00;99.90;;;;;;5063171;28;20548;-49
2022/01/05 01:17:38;;;;;;;3.50;1.80;;;8.00;99.90;;;;;;5084058;28;20491;-47
2022/01/05 01:20:06;;;;;;;2.20;1.60;;;8.00;99.90;;;;;;5066639;28;20495;-49
2022/01/05 01:22:35;;;;;;;4.13;2.23;;;8.00;99.90;;;;;;5074909;28;20555;-49
2022/01/05 01:25:02;;;;;;;1.70;1.30;;;8.00;99.90;;;;;;5078673;28;20494;-47
2022/01/05 01:27:29;;;;;;;2.03;1.43;;;8.00;99.90;;;;;;5075886;28;20534;-48
2022/01/05 01:29:55;;;;;;;2.50;1.63;;;8.00;99.90;;;;;;5083582;28;20471;-48
2022/01/05 01:32:22;;;;;;;4.43;1.80;;;8.00;99.90;;;;;;5072846;28;21292;-47
2022/01/05 01:34:49;;;;;;;3.13;1.20;;;8.00;99.90;;;;;;5078777;28;20848;-48
2022/01/05 01:37:16;;;;;;;2.37;2.13;;;8.00;99.90;;;;;;5072667;28;20501;-48
2022/01/05 01:39:44;;;;;;;2.70;1.70;;;7.90;99.90;;;;;;5081143;27;20483;-48
2022/01/05 01:42:11;;;;;;;2.23;1.67;;;8.00;99.90;;;;;;5074111;28;20488;-48
2022/01/05 01:44:38;;;;;;;3.20;1.90;;;8.00;99.90;;;;;;5077557;28;20469;-49
2022/01/05 01:47:05;;;;;;;4.47;1.73;;;8.00;99.90;;;;;;5073627;28;20869;-48
2022/01/05 01:49:32;;;;;;;2.30;1.53;;;8.00;99.90;;;;;;5078517;28;20554;-49
2022/01/05 01:51:59;;;;;;;8.37;2.17;;;8.00;99.90;;;;;;5098169;27;20485;-48
2022/01/05 01:54:26;;;;;;;2.00;1.60;;;7.90;99.90;;;;;;5081347;27;20475;-48
2022/01/05 01:56:55;;;;;;;2.50;1.40;;;7.90;99.90;;;;;;5069582;28;20471;-48
2022/01/05 01:59:22;;;;;;;2.70;1.37;;;7.80;99.90;;;;;;5082706;28;20543;-48
2022/01/05 02:01:49;;;;;;;3.30;1.90;;;7.70;99.90;;;;;;5071379;28;20477;-49
2022/01/05 02:04:15;;;;;;;1.70;1.47;;;7.80;99.90;;;;;;5072131;28;20927;-48
2022/01/05 02:06:42;;;;;;;2.00;1.20;;;7.70;99.90;;;;;;5079919;28;20475;-48
2022/01/05 02:09:09;;;;;;;1.83;1.33;;;7.70;99.90;;;;;;5075597;28;20890;-49
2022/01/05 02:11:39;;;;;;;3.50;1.57;;;7.70;99.90;;;;;;5093873;28;20491;-48
2022/01/05 02:14:07;;;;;;;2.57;1.17;;;7.70;99.90;;;;;;5072078;28;20524;-48
2022/01/05 02:16:39;;;;;;;1.83;1.30;;;7.70;99.90;;;;;;5088415;28;20606;-50
2022/01/05 02:19:05;;;;;;;1.73;1.23;;;7.70;99.90;;;;;;5078397;28;20487;-48
2022/01/05 02:21:36;;;;;;;1.63;0.80;;;7.60;99.90;;;;;;5079851;28;20926;-49
2022/01/05 02:24:06;;;;;;;1.80;0.83;;;7.60;99.90;;;;;;5078167;28;21068;-48
2022/01/05 02:26:34;;;;;;;2.00;1.03;;;7.60;99.90;;;;;;5080488;28;20477;-49
2022/01/05 02:29:01;;;;;;;2.23;1.23;;;7.60;99.90;;;;;;5083920;28;20899;-48
2022/01/05 02:31:28;;;;;;;1.40;0.67;;;7.50;99.90;;;;;;5106105;27;20961;-49
2022/01/05 02:33:55;;;;;;;1.50;0.80;;;7.40;99.90;;;;;;5079384;28;20531;-48
2022/01/05 02:36:22;;;;;;;1.30;0.50;;;7.20;99.90;;;;;;5078409;28;22157;-49
2022/01/05 02:38:52;;;;;;;1.40;0.60;;;7.00;99.60;;;;;;5077360;28;21350;-48
2022/01/05 02:41:19;;;;;;;2.40;0.83;;;6.90;99.80;;;;;;5080984;28;20488;-49
2022/01/05 02:43:47;;;;;;;7.53;0.70;;;6.80;99.70;;;;;;5081645;28;20480;-48
2022/01/05 02:46:16;;;;;;;1.60;0.70;;;6.80;99.90;;;;;;5076397;28;20486;-49
2022/01/05 02:48:44;;;;;;;1.40;0.70;;;6.70;99.90;;;;;;5076102;28;20548;-48
2022/01/05 02:51:11;;;;;;;1.60;0.60;;;6.60;99.80;;;;;;5083186;28;20471;-49
2022/01/05 02:53:38;;;;;;;2.70;0.50;;;6.50;99.50;;;;;;5088857;28;20924;-48
2022/01/05 02:56:07;;;;;;;1.57;1.03;;;6.40;99.30;;;;;;5076622;28;20993;-48
2022/01/05 02:58:34;;;;;;;1.40;0.60;;;6.30;99.00;;;;;;5095044;27;20483;-49
2022/01/05 03:01:01;;;;;;;1.50;0.70;;;6.20;99.30;;;;;;5075284;27;20479;-49
2022/01/05 03:03:28;;;;;;;1.30;0.60;;;6.20;99.80;;;;;;5086527;28;21239;-50
2022/01/05 03:05:54;;;;;;;1.40;0.63;;;6.10;99.60;;;;;;5072603;28;20596;-49
2022/01/05 03:08:21;;;;;;;1.40;0.60;;;6.10;99.40;;;;;;5088100;27;20495;-49
2022/01/05 03:10:48;;;;;;;1.30;0.60;;;6.10;99.80;;;;;;5082533;27;20920;-48
2022/01/05 03:13:16;;;;;;;1.50;0.60;;;6.10;99.40;;;;;;5070755;28;21482;-50
2022/01/05 03:15:43;;;;;;;1.30;0.50;;;6.10;99.60;;;;;;5090403;28;20550;-49
2022/01/05 03:18:09;;;;;;;1.30;0.60;;;6.10;99.40;;;;;;5071963;28;20488;-49
2022/01/05 03:20:36;;;;;;;1.50;0.60;;;6.10;99.40;;;;;;5078110;28;20489;-49
2022/01/05 03:23:04;;;;;;;1.57;1.17;;;6.10;99.30;;;;;;5071744;28;20485;-49
2022/01/05 03:25:31;;;;;;;1.90;0.67;;;6.00;99.00;;;;;;5078182;28;20489;-49
2022/01/05 03:27:58;;;;;;;1.73;0.60;;;6.00;99.10;;;;;;5074017;28;20484;-49
2022/01/05 03:30:28;;;;;;;1.77;0.60;;;5.90;98.80;;;;;;5080865;28;20520;-49
2022/01/05 03:35:43;;;;;;;1.70;0.70;;;6.00;99.30;;;;;;5096669;28;20484;-49
2022/01/05 03:38:10;;;;;;;3.57;0.70;;;6.00;99.40;;;;;;5088750;28;20829;-48
2022/01/05 03:40:37;;;;;;;1.40;1.00;;;6.00;99.40;;;;;;5078109;28;20488;-49
2022/01/05 03:43:06;;;;;;;1.80;1.03;;;6.00;99.10;;;;;;5066557;28;20796;-49
2022/01/05 03:45:36;;;;;;;3.60;0.90;;;6.00;99.30;;;;;;5092126;28;20492;-49
2022/01/05 03:48:04;;;;;;;3.00;0.87;;;6.00;99.30;;;;;;5074957;28;20506;-49
2022/01/05 03:50:31;;;;;;;1.50;0.70;;;6.00;99.20;;;;;;5085220;28;20488;-49
2022/01/05 03:52:57;;;;;;;1.80;0.80;;;6.00;99.40;;;;;;5075024;28;20473;-48
2022/01/05 03:55:24;;;;;;;1.40;0.60;;;6.00;99.30;;;;;;5079025;28;20479;-48
2022/01/05 03:57:51;;;;;;;8.23;1.00;;;5.90;99.30;;;;;;5079535;28;20481;-48
2022/01/05 04:00:19;;;;;;;3.10;1.17;;;5.90;99.20;;;;;;5069738;28;20495;-48
2022/01/05 04:02:47;;;;;;;3.40;1.10;;;5.80;99.40;;;;;;5088506;28;20537;-48
2022/01/05 04:05:13;;;;;;;5.73;1.40;;;5.80;99.30;;;;;;5070092;28;20526;-48
2022/01/05 04:07:40;;;;;;;2.80;0.90;;;5.70;99.20;;;;;;5077020;28;20529;-48
2022/01/05 04:10:07;;;;;;;1.50;0.90;;;5.60;99.40;;;;;;5084480;28;20484;-48
2022/01/05 04:12:34;;;;;;;3.73;2.13;;;5.60;99.60;;;;;;4970740;28;2481094;-49
2022/01/05 04:15:02;;;;;;;2.63;1.23;;;5.50;99.40;;;;;;5087375;28;20330;-48
2022/01/05 04:17:28;;;;;;;1.80;1.50;;;5.50;99.40;;;;;;5060004;28;20495;-48
2022/01/05 04:19:57;;;;;;;2.47;1.50;;;5.50;99.50;;;;;;5080693;28;20545;-47
2022/01/05 04:22:23;;;;;;;3.80;1.13;;;5.30;99.00;;;;;;5060490;27;20556;-48
2022/01/05 04:24:50;;;;;;;5.43;1.30;;;5.20;99.00;;;;;;5109612;27;20930;-48
2022/01/05 04:27:17;;;;;;;4.57;1.70;;;5.20;99.00;;;;;;5074626;28;20492;-47
2022/01/05 04:29:44;;;;;;;3.57;1.40;;;5.10;99.00;;;;;;5082069;28;20478;-48
2022/01/05 04:32:11;;;;;;;3.70;2.00;;;5.00;98.70;;;;;;5081535;28;21097;-48
2022/01/05 04:34:38;;;;;;;10.00;2.47;;;5.00;98.80;;;;;;5074983;28;20962;-48
2022/01/05 04:37:07;;;;;;;2.73;1.17;;;4.90;98.50;;;;;;5080398;28;20534;-48
2022/01/05 04:39:34;;;;;;;3.80;2.10;;;4.90;98.60;;;;;;5073183;28;20533;-48
2022/01/05 04:42:01;;;;;;;2.70;1.70;;;4.90;98.50;;;;;;5090638;28;20492;-47
2022/01/05 04:44:28;;;;;;;9.37;2.23;;;4.90;98.50;;;;;;5081781;28;20483;-50
2022/01/05 04:46:55;;;;;;;3.80;2.00;;;4.80;98.20;;;;;;5081063;28;20537;-48
2022/01/05 04:49:21;;;;;;;5.30;3.00;;;4.90;98.60;;;;;;5081153;28;20977;-48
2022/01/05 04:51:48;;;;;;;3.70;1.80;;;4.90;98.70;;;;;;5081618;28;20584;-48
2022/01/05 04:54:17;;;;;;;2.00;1.63;;;4.80;98.40;;;;;;5082472;28;20471;-48
2022/01/05 04:56:43;;;;;;;3.10;1.97;;;4.70;98.40;;;;;;5069914;28;20476;-48
2022/01/05 04:59:10;;;;;;;4.63;2.30;;;4.70;98.70;;;;;;5081109;28;20897;-48
2022/01/05 05:01:37;;;;;;;4.23;1.80;;;4.60;98.70;;;;;;5079263;28;20467;-48
2022/01/05 05:04:04;;;;;;;3.40;2.47;;;4.60;99.00;;;;;;5081059;28;20482;-48
2022/01/05 05:06:31;;;;;;;3.80;2.10;;;4.60;99.20;;;;;;5079515;28;21824;-49
2022/01/05 05:08:58;;;;;;;3.20;2.37;;;4.60;99.30;;;;;;5079414;28;20487;-48
2022/01/05 05:11:26;;;;;;;6.23;4.20;;;4.50;99.20;;;;;;5080558;28;21016;-48
2022/01/05 05:13:53;;;;;;;12.10;3.10;;;4.50;99.40;;;;;;5081570;28;20479;-48
2022/01/05 05:16:20;;;;;;;6.50;1.97;;;4.50;99.30;;;;;;5079698;28;20476;-48
2022/01/05 05:18:47;;;;;;;8.87;2.57;;;4.40;99.00;;;;;;5080728;28;20533;-48
2022/01/05 05:21:13;;;;;;;7.43;2.50;;;4.40;99.30;;;;;;5081630;28;20471;-48
2022/01/05 05:23:40;;;;;;;7.30;2.73;;;4.40;99.30;;;;;;5075243;28;20471;-48
2022/01/05 05:26:07;;;;;;;5.20;2.63;;;4.40;99.30;;;;;;5100925;27;20486;-48
2022/01/05 05:28:35;;;;;;;5.33;3.57;;;4.40;99.30;;;;;;5078393;28;20549;-48
2022/01/05 05:31:02;;;;;;;4.67;2.50;;;4.40;99.30;;;;;;5079645;28;20536;-48
2022/01/05 05:33:28;;;;;;;8.40;3.13;;;4.30;99.20;;;;;;5079483;28;20881;-48
2022/01/05 05:35:55;;;;;;;5.57;3.17;;;4.40;99.50;;;;;;5074053;28;20903;-48
2022/01/05 05:38:22;;;;;;;4.03;3.20;;;4.30;99.10;;;;;;5085035;28;20882;-48
2022/01/05 05:40:49;;;;;;;7.63;2.87;;;4.40;99.30;;;;;;5085198;28;20483;-48
2022/01/05 05:43:15;;;;;;;9.50;3.17;;;4.30;99.20;;;;;;5074851;28;21004;-49
2022/01/05 05:45:43;;;;;;;10.37;4.10;;;4.30;99.30;;;;;;5077155;28;20535;-49
2022/01/05 05:48:10;;;;;;;6.63;3.83;;;4.30;99.20;;;;;;5078566;28;20476;-48
2022/01/05 05:50:37;;;;;;;3.80;2.03;;;4.30;99.50;;;;;;5076546;28;20581;-48
2022/01/05 05:53:04;;;;;;;2.10;1.80;;;4.30;99.50;;;;;;5068554;28;20478;-48
2022/01/05 05:55:31;;;;;;;5.63;3.37;;;4.30;99.30;;;;;;5110396;27;20545;-49
2022/01/05 05:57:57;;;;;;;7.20;2.00;;;4.30;99.50;;;;;;5074946;28;20482;-48
2022/01/05 06:00:24;;;;;;;4.13;2.30;;;4.30;99.20;;;;;;5070550;28;20497;-48
2022/01/05 06:02:52;;;;;;;13.13;4.53;;;4.30;98.80;;;;;;5081084;28;20496;-48
2022/01/05 06:05:19;;;;;;;8.40;2.80;;;4.30;98.60;;;;;;5076430;28;20521;-48
2022/01/05 06:07:46;;;;;;;5.80;3.00;;;4.30;98.30;;;;;;5073815;28;20485;-48
2022/01/05 06:10:13;;;;;;;8.43;3.83;;;4.20;98.10;;;;;;5074047;28;20527;-48
2022/01/05 06:12:39;;;;;;;10.00;3.57;;;4.20;97.60;;;;;;5078915;28;20477;-48
2022/01/05 06:15:07;;;;;;;4.57;2.63;;;4.20;97.50;;;;;;5077227;28;21003;-48
2022/01/05 06:17:34;;;;;;;5.70;2.87;;;4.10;97.00;;;;;;5077196;28;20479;-49
2022/01/05 06:20:04;;;;;;;3.83;1.93;;;4.00;96.60;;;;;;5072367;28;21036;-48
2022/01/05 06:22:31;;;;;;;3.53;2.43;;;4.00;96.70;;;;;;5073363;28;20574;-48
2022/01/05 06:24:58;;;;;;;6.33;3.07;;;3.90;96.40;;;;;;5076409;28;20537;-48
2022/01/05 06:27:24;;;;;;;5.63;2.07;;;3.90;96.70;;;;;;5077560;28;20487;-48
2022/01/05 06:29:52;;;;;;;14.67;2.73;;;3.90;96.70;;;;;;5075991;28;20496;-48
2022/01/05 06:32:19;;;;;;;5.57;3.10;;;3.80;96.50;;;;;;5065018;28;20538;-48
2022/01/05 06:34:45;;;;;;;10.03;3.40;;;3.80;96.50;;;;;;5077454;28;20891;-50
2022/01/05 06:37:15;;;;;;;6.53;2.77;;;3.80;96.80;;;;;;5077185;28;20532;-48
2022/01/05 06:39:42;;;;;;;7.90;2.67;;;3.80;96.90;;;;;;5076576;28;20520;-48
2022/01/05 06:42:09;;;;;;;5.77;2.60;;;3.80;96.90;;;;;;5083291;27;20502;-48
2022/01/05 06:44:36;;;;;;;10.40;3.00;;;3.90;96.90;;;;;;5096054;28;20533;-47
2022/01/05 06:47:03;;;;;;;10.03;2.83;;;3.90;96.70;;;;;;5074518;28;20549;-48
2022/01/05 06:49:30;;;;;;;4.60;2.50;;;3.80;96.70;;;;;;5072633;28;20508;-48
2022/01/05 06:51:56;;;;;;;8.50;2.43;;;3.80;96.20;;;;;;5072043;28;20482;-49
2022/01/05 06:54:24;;;;;;;6.43;2.10;;;3.80;95.70;;;;;;5096322;27;20471;-47
2022/01/05 06:56:51;;;;;;;8.80;2.37;;;3.80;96.00;;;;;;5060283;28;20883;-48
2022/01/05 06:59:18;;;;;;;6.00;2.83;;;3.80;95.80;;;;;;5057536;28;20482;-48
2022/01/05 07:01:44;;;;;;;5.30;2.87;;;3.80;96.20;;;;;;5067251;28;20475;-48
2022/01/05 07:04:11;;;;;;;6.03;2.43;;;3.90;96.30;;;;;;5075337;28;20473;-48
2022/01/05 07:06:38;;;;;;;12.70;2.50;;;3.90;96.40;;;;;;5080417;28;21831;-48
2022/01/05 07:09:05;;;;;;;8.27;3.63;;;3.90;96.40;;;;;;5081321;28;20511;-48
2022/01/05 07:11:35;;;;;;;4.47;2.70;;;3.90;96.40;;;;;;5087381;28;20972;-48
2022/01/05 07:14:02;;;;;;;4.10;1.73;;;3.90;96.50;;;;;;5078613;28;20474;-48
2022/01/05 07:16:29;;;;;;;7.50;2.30;;;3.80;96.50;;;;;;5082241;28;20868;-48
2022/01/05 07:18:55;;;;;;;11.60;3.63;;;3.70;96.40;;;;;;5086259;28;20502;-48
2022/01/05 07:21:22;;;;;;;8.53;2.50;;;3.70;96.60;;;;;;5082209;28;20483;-48
2022/01/05 07:23:49;;;;;;;3.50;1.93;;;3.60;96.40;;;;;;5087413;28;20475;-48
2022/01/05 07:26:16;;;;;;;6.97;2.10;;;3.50;96.40;;;;;;5080683;28;21240;-48
2022/01/05 07:28:44;;;;;;;7.10;2.30;;;3.50;96.60;;;;;;5077067;28;20483;-48
2022/01/05 07:31:11;;;;;;;13.97;2.00;;;3.50;96.70;;;;;;5087919;28;20510;-48
2022/01/05 07:33:38;;;;;;;6.97;3.87;;;3.40;96.70;;;;;;5079037;28;20504;-49
2022/01/05 07:36:05;;;;;;;7.20;2.83;;;3.50;96.80;;;;;;5074846;28;20859;-48
2022/01/05 07:38:32;;;;;;;10.27;4.10;;;3.40;96.70;;;;;;5070126;28;21309;-48
2022/01/05 07:40:59;;;;;;;6.60;2.23;;;3.50;96.80;;;;;;5071075;28;20484;-48
2022/01/05 07:43:25;;;;;;;2.90;1.47;;;3.40;96.60;;;;;;5075778;28;20537;-48
2022/01/05 07:45:54;;;;;;;5.40;2.50;;;3.40;96.30;;;;;;5065683;28;20544;-47
2022/01/05 07:48:21;;;;;;;3.40;1.33;;;3.40;96.60;;;;;;5069164;28;20492;-47
2022/01/05 07:50:48;;;;;;;4.80;2.03;;;3.40;96.50;;;;;;5073246;28;20478;-49
2022/01/05 07:53:15;;;;;;;3.60;1.77;;;3.40;96.50;;;;;;5072769;28;20486;-47
2022/01/05 07:55:41;;;;;;;6.57;2.23;;;3.40;96.60;;;;;;5086929;28;20474;-47
2022/01/05 07:58:08;;;;;;;16.73;4.50;;;3.40;96.90;;;;;;5077172;28;20977;-47
2022/01/05 08:00:35;;;;;;;2.30;1.70;;;3.30;96.60;;;;;;5075131;28;20907;-50
2022/01/05 08:03:03;;;;;;;4.30;2.20;;;3.30;96.50;;;;;;5071959;28;20550;-47
2022/01/05 08:05:30;;;;;;;5.13;2.20;;;3.30;96.70;;;;;;5072551;28;20489;-48
2022/01/05 08:07:56;;;;;;;6.40;2.30;;;3.30;96.70;;;;;;5080894;28;20479;-48
2022/01/05 08:10:23;;;;;;;4.30;2.20;;;3.30;96.60;;;;;;5075174;28;20518;-47
2022/01/05 08:12:50;;;;;;;7.40;2.53;;;3.30;96.70;;;;;;5072301;28;20470;-48
2022/01/05 08:15:17;;;;;;;5.23;2.60;;;3.30;96.70;;;;;;5068577;28;20490;-48
2022/01/05 08:17:44;;;;;;;26.67;5.03;;;3.30;96.70;;;;;;5074406;28;20984;-47
2022/01/05 08:20:13;;;;;;;2.30;1.53;;;3.40;96.90;;;;;;5075859;28;20590;-47
2022/01/05 08:22:41;;;;;;;10.23;3.37;;;3.40;96.60;;;;;;5073846;28;20490;-47
2022/01/05 08:25:09;;;;;;;8.43;3.93;;;3.40;96.80;;;;;;5076210;28;20490;-48
2022/01/05 08:27:36;;;;;;;4.77;2.20;;;3.40;97.00;;;;;;5077378;28;20488;-48
2022/01/05 08:30:05;;;;;;;5.27;2.10;;;3.80;97.40;;;;;;5081632;28;20544;-50
2022/01/05 08:32:32;;;;;;;3.33;2.10;;;4.50;97.00;;;;;;5074655;28;20487;-47
2022/01/05 08:34:59;;;;;;;12.20;3.10;;;5.10;95.90;;;;;;5083100;28;20476;-48
2022/01/05 08:37:27;;;;;;;7.40;3.77;;;5.60;95.60;;;;;;5067567;28;20484;-48
2022/01/05 08:39:54;;;;;;;8.43;2.87;;;6.20;95.60;;;;;;5073147;28;20485;-47
2022/01/05 08:42:21;;;;;;;12.80;2.77;;;6.60;94.50;;;;;;5073873;28;20492;-54
2022/01/05 08:44:48;;;;;;;20.67;4.20;;;7.00;94.10;;;;;;5081835;28;21767;-48
2022/01/05 08:47:14;;;;;;;5.77;2.77;;;7.30;93.70;;;;;;5071955;28;20486;-48
2022/01/05 08:49:42;;;;;;;12.47;4.80;;;7.50;93.20;;;;;;5069310;28;20489;-49
2022/01/05 08:52:08;;;;;;;8.10;2.60;;;7.70;93.30;;;;;;5073603;28;20593;-47
2022/01/05 08:54:37;;;;;;;5.33;2.67;;;7.80;92.80;;;;;;5073640;28;20494;-49
2022/01/05 08:57:05;;;;;;;11.70;2.83;;;7.60;92.20;;;;;;5072046;28;20538;-48
2022/01/05 08:59:32;;;;;;;2.90;2.40;;;7.60;92.30;;;;;;5065655;28;20467;-47
2022/01/05 09:01:58;;;;;;;4.93;3.20;;;7.50;92.10;;;;;;5070709;28;20489;-47
2022/01/05 09:04:26;;;;;;;13.43;3.67;;;7.40;92.40;;;;;;5068607;28;20477;-48
2022/01/05 09:06:53;;;;;;;6.00;3.47;;;7.30;92.90;;;;;;5079187;28;20484;-47
2022/01/05 09:09:20;;;;;;;14.53;4.77;;;6.90;92.90;;;;;;5067778;28;20490;-48
2022/01/05 09:11:48;;;;;;;10.43;2.80;;;6.50;93.30;;;;;;5072515;28;20476;-47
2022/01/05 09:14:15;;;;;;;7.90;3.30;;;6.30;93.50;;;;;;5081684;28;20475;-48
2022/01/05 09:16:41;;;;;;;5.33;3.63;;;6.10;93.70;;;;;;5061337;28;20484;-47
2022/01/05 09:19:08;;;;;;;15.13;5.70;;;5.70;93.50;;;;;;5092783;27;20532;-48
2022/01/05 09:21:36;;;;;;;12.43;4.20;;;5.50;93.90;;;;;;5083800;27;20541;-50
2022/01/05 09:24:03;;;;;;;15.80;3.00;;;5.30;94.20;;;;;;5069340;28;20513;-47
2022/01/05 09:26:30;;;;;;;11.20;2.67;;;5.20;94.60;;;;;;5087092;28;20488;-48
2022/01/05 09:28:58;;;;;;;8.80;2.87;;;5.10;94.50;;;;;;5077576;28;20546;-47
2022/01/05 09:31:25;;;;;;;6.40;2.93;;;5.10;94.30;;;;;;5074084;28;20476;-47
2022/01/05 09:33:51;;;;;;;7.43;3.00;;;5.00;94.30;;;;;;5064275;28;20476;-48
2022/01/05 09:36:22;;;;;;;10.70;3.37;;;5.00;94.80;;;;;;5078502;28;20476;-48
2022/01/05 09:44:20;;;;;;;5.03;2.03;;;4.80;94.40;;;;;;5077980;28;20493;-48
2022/01/05 09:47:03;;;;;;;13.73;2.27;;;4.80;93.70;;;;;;5076292;28;20483;-47
2022/01/05 09:49:33;;;;;;;4.00;2.27;;;4.60;93.10;;;;;;5079135;28;20475;-48
2022/01/05 09:52:05;;;;;;;6.20;1.80;;;4.60;93.30;;;;;;5074981;28;20885;-47
2022/01/05 09:54:34;;;;;;;5.50;2.60;;;4.40;93.40;;;;;;5070409;28;20480;-47
2022/01/05 09:57:01;;;;;;;12.70;3.17;;;4.40;93.30;;;;;;5069254;28;20471;-48
2022/01/05 09:59:33;;;;;;;2.87;2.03;;;4.30;93.80;;;;;;5070082;28;20517;-48
2022/01/05 10:02:00;;;;;;;6.20;1.67;;;4.30;94.00;;;;;;5067983;28;20483;-47
2022/01/05 10:04:27;;;;;;;4.63;1.60;;;4.30;94.10;;;;;;5069273;28;20478;-47
2022/01/05 10:06:54;;;;;;;9.07;2.73;;;4.20;93.30;;;;;;5076218;28;20513;-48
2022/01/05 10:09:20;;;;;;;6.53;1.90;;;4.20;93.70;;;;;;5079697;28;20537;-48
2022/01/05 10:11:47;;;;;;;4.23;2.20;;;4.20;94.10;;;;;;5079430;28;20486;-48
2022/01/05 10:14:15;;;;;;;5.07;2.20;;;4.20;94.10;;;;;;5079954;28;20974;-48
2022/01/05 10:17:01;;;;;;;8.20;2.13;;;4.10;94.00;;;;;;5078818;28;20965;-47
2022/01/05 10:19:27;;;;;;;2.10;1.40;;;4.10;94.30;;;;;;5075023;28;20543;-47
2022/01/05 10:21:56;;;;;;;8.53;1.60;;;4.10;94.40;;;;;;5074216;28;20945;-47
2022/01/05 10:24:41;;;;;;;6.73;2.53;;;4.00;93.70;;;;;;5080812;28;20491;-48
2022/01/05 10:27:08;;;;;;;11.70;1.80;;;4.10;94.10;;;;;;5078893;28;20481;-48
2022/01/05 10:29:35;;;;;;;11.23;2.33;;;4.00;93.90;;;;;;5079800;28;20545;-52
2022/01/05 10:32:08;;;;;;;10.30;2.53;;;4.00;93.50;;;;;;5077377;28;20476;-48
2022/01/05 10:34:36;;;;;;;7.63;2.03;;;4.00;93.80;;;;;;5073468;28;20481;-47
2022/01/05 10:37:06;;;;;;;10.77;2.37;;;4.00;93.80;;;;;;5083470;28;21042;-48
2022/01/05 10:39:35;;;;;;;8.90;3.40;;;4.10;93.80;;;;;;5091983;28;21012;-48
2022/01/05 10:42:04;;;;;;;3.23;1.70;;;4.10;93.70;;;;;;5078151;28;20838;-47
2022/01/05 10:44:31;;;;;;;7.23;2.27;;;4.10;94.10;;;;;;5083793;28;21105;-48
2022/01/05 10:47:00;;;;;;;5.90;2.10;;;4.20;94.00;;;;;;5082432;28;20543;-47
2022/01/05 10:49:31;;;;;;;2.80;1.73;;;4.20;93.70;;;;;;5065993;28;20485;-47
2022/01/05 10:52:00;;;;;;;5.73;1.80;;;4.10;93.60;;;;;;5077378;28;20905;-47
2022/01/05 10:54:29;;;;;;;11.80;1.57;;;4.10;93.80;;;;;;5066283;28;20480;-47
2022/01/05 10:57:08;;;;;;;11.90;2.07;;;4.10;93.80;;;;;;5071507;28;20468;-47
2022/01/05 10:59:37;;;;;;;2.20;1.30;;;4.20;93.50;;;;;;5073664;28;20481;-48
2022/01/05 11:02:27;;;;;;;4.27;1.80;;;4.20;93.70;;;;;;5084818;28;21222;-48
2022/01/05 11:05:11;;;;;;;7.73;2.50;;;4.20;93.80;;;;;;5061646;28;21005;-48
2022/01/05 11:07:39;;;;;;;10.43;2.30;;;4.20;93.50;;;;;;5046957;28;20489;-47
2022/01/05 11:10:09;;;;;;;2.17;1.60;;;4.20;93.60;;;;;;5059912;28;20558;-47
2022/01/05 11:12:37;;;;;;;4.27;2.17;;;4.10;93.80;;;;;;5056785;28;20485;-47
2022/01/05 11:15:22;;;;;;;6.17;1.60;;;4.10;93.40;;;;;;5047344;28;20549;-47
2022/01/05 11:18:12;;;;;;;1.67;1.10;;;4.20;93.60;;;;;;5069522;27;21012;-47
2022/01/05 11:20:51;;;;;;;2.90;1.87;;;4.20;93.20;;;;;;5060694;28;20478;-47
2022/01/05 11:23:18;;;;;;;3.60;1.70;;;4.30;94.20;;;;;;5052112;28;20483;-47
2022/01/05 11:25:46;;;;;;;4.40;1.40;;;4.30;93.70;;;;;;5049455;28;20471;-49
2022/01/05 11:28:15;;;;;;;4.20;2.53;;;4.40;93.60;;;;;;5056761;28;20533;-47
2022/01/05 11:30:42;;;;;;;8.03;2.37;;;4.40;93.40;;;;;;5044565;28;20475;-48
2022/01/05 11:33:09;;;;;;;9.43;2.80;;;4.50;93.60;;;;;;5055403;28;20966;-47
2022/01/05 11:35:36;;;;;;;5.50;2.73;;;4.50;93.70;;;;;;5057229;28;20483;-47
2022/01/05 11:38:05;;;;;;;8.90;2.13;;;4.50;93.90;;;;;;5061352;28;21185;-47
2022/01/05 11:40:34;;;;;;;6.83;2.13;;;4.50;93.50;;;;;;5060859;27;21276;-50
2022/01/05 11:43:03;;;;;;;8.70;2.70;;;4.50;93.50;;;;;;5066312;27;21077;-47
2022/01/05 11:45:34;;;;;;;6.63;2.13;;;4.60;93.70;;;;;;5048748;28;20488;-48
2022/01/05 11:48:21;;;;;;;5.37;1.93;;;4.60;93.60;;;;;;5062755;28;20541;-48
2022/01/05 11:50:50;;;;;;;5.87;1.67;;;4.50;93.10;;;;;;5051263;28;20503;-48
2022/01/05 11:53:34;;;;;;;6.23;1.83;;;4.50;93.70;;;;;;5052571;28;20499;-47
2022/01/05 11:56:20;;;;;;;12.30;1.87;;;4.60;93.70;;;;;;5047704;28;20481;-48
2022/01/05 11:59:02;;;;;;;8.47;1.77;;;4.60;93.30;;;;;;5038229;28;20510;-48
2022/01/05 12:01:34;;;;;;;10.23;2.90;;;4.60;93.20;;;;;;5041025;28;20501;-47
2022/01/05 12:04:14;;;;;;;2.00;1.03;;;4.60;93.50;;;;;;5052267;28;20488;-49
2022/01/05 12:07:02;;;;;;;8.50;2.33;;;4.60;93.40;;;;;;5053075;28;20491;-48
2022/01/05 12:09:32;;;;;;;11.83;2.10;;;4.70;92.80;;;;;;5056581;28;20574;-47
2022/01/05 12:12:03;;;;;;;4.33;2.00;;;4.70;93.00;;;;;;5052897;28;20867;-48
2022/01/05 12:14:46;;;;;;;3.97;2.20;;;4.70;93.00;;;;;;5054844;27;20505;-47
2022/01/05 12:17:13;;;;;;;9.57;2.37;;;4.70;92.90;;;;;;5060412;27;21004;-47
2022/01/05 12:20:06;;;;;;;5.77;2.40;;;4.70;93.30;;;;;;5049826;28;20472;-48
2022/01/05 12:22:33;;;;;;;10.47;3.37;;;4.70;93.40;;;;;;5059521;28;21232;-48
2022/01/05 12:25:17;;;;;;;2.97;1.70;;;4.70;93.20;;;;;;5050804;28;20484;-48
2022/01/05 12:27:58;;;;;;;3.43;1.67;;;4.70;93.40;;;;;;5062483;28;20471;-48
2022/01/05 12:30:41;;;;;;;3.60;2.47;;;4.60;93.50;;;;;;5062399;28;20488;-47
2022/01/05 12:33:17;;;;;;;18.53;2.20;;;4.70;93.70;;;;;;5046025;28;20476;-47
2022/01/05 12:35:56;;;;;;;4.13;1.50;;;4.60;94.00;;;;;;5049426;28;20473;-52
2022/01/05 12:38:46;;;;;;;2.97;1.40;;;4.70;93.40;;;;;;5053620;28;20529;-48
2022/01/05 12:41:32;;;;;;;5.43;1.10;;;4.60;92.70;;;;;;5055598;28;20491;-47
2022/01/05 12:44:01;;;;;;;5.10;1.70;;;4.70;93.50;;;;;;5058973;28;20484;-48
2022/01/05 12:46:37;;;;;;;6.40;1.47;;;4.70;93.20;;;;;;5057088;28;20489;-48
2022/01/05 12:49:09;;;;;;;7.00;1.53;;;4.70;93.80;;;;;;5060856;28;20511;-48
2022/01/05 12:51:44;;;;;;;5.57;2.60;;;4.70;93.70;;;;;;5058928;28;20491;-49
2022/01/05 12:54:13;;;;;;;1.83;0.90;;;4.70;93.40;;;;;;5058646;28;20496;-48
2022/01/05 12:56:43;;;;;;;2.77;1.47;;;4.70;93.20;;;;;;5060743;27;20561;-48
2022/01/05 12:59:14;;;;;;;4.97;2.10;;;4.70;93.30;;;;;;5077742;27;20484;-48
2022/01/05 13:01:43;;;;;;;8.93;2.23;;;4.70;93.70;;;;;;5072515;28;20480;-48
2022/01/05 13:04:11;;;;;;;8.87;1.70;;;4.70;93.00;;;;;;5057291;28;20482;-48
2022/01/05 13:06:40;;;;;;;9.10;2.00;;;4.70;93.00;;;;;;5049373;28;20489;-48
2022/01/05 13:09:08;;;;;;;6.80;1.87;;;4.70;93.40;;;;;;5050007;28;20551;-47
2022/01/05 13:11:38;;;;;;;5.33;2.07;;;4.70;93.30;;;;;;5045093;28;20548;-48